Time;durP1;ratioP1;P1;durP2;ratioP2;P2;SDS_P1;SDS_P2;PMS_P1;PMS_P2;Temp;Humidity;BMP_temperature;BMP_pressure;BME280_temperature;BME280_humidity;BME280_pressure;Samples;Min_cycle;Max_cycle;Signal;HPM_P1;HPM_P2
2021/03/31 00:01:51;;;;;;;12.20;4.82;;;;;;;;;;5019019;28;20480;-83
2021/03/31 00:04:36;;;;;;;13.05;5.05;;;;;;;;;;5027884;28;20037;-82
2021/03/31 00:07:21;;;;;;;10.35;5.07;;;;;;;;;;5020744;28;20037;-82
2021/03/31 00:10:13;;;;;;;9.88;5.10;;;;;;;;;;5028074;28;20029;-82
2021/03/31 00:12:58;;;;;;;10.18;5.05;;;;;;;;;;5021404;28;20041;-82
2021/03/31 00:15:44;;;;;;;9.00;4.68;;;;;;;;;;5027675;28;20435;-83
2021/03/31 00:18:29;;;;;;;11.52;5.05;;;;;;;;;;5026478;28;20479;-81
2021/03/31 00:21:14;;;;;;;11.00;5.78;;;;;;;;;;5022114;28;20018;-82
2021/03/31 00:24:00;;;;;;;9.13;4.57;;;;;;;;;;5026291;28;20183;-81
2021/03/31 00:26:45;;;;;;;18.55;5.40;;;;;;;;;;5023036;28;20037;-81
2021/03/31 00:29:30;;;;;;;9.40;5.10;;;;;;;;;;5027614;28;20057;-82
2021/03/31 00:32:15;;;;;;;17.02;4.82;;;;;;;;;;5019589;28;20029;-81
2021/03/31 00:35:05;;;;;;;9.88;4.82;;;;;;;;;;5022743;28;20029;-82
2021/03/31 00:37:50;;;;;;;10.65;4.90;;;;;;;;;;5019984;28;20105;-82
2021/03/31 00:40:35;;;;;;;13.57;6.47;;;;;;;;;;5027066;28;20048;-81
2021/03/31 00:43:21;;;;;;;10.60;5.18;;;;;;;;;;5022630;28;20219;-81
2021/03/31 00:46:06;;;;;;;9.13;4.47;;;;;;;;;;5017605;28;20028;-81
2021/03/31 00:48:51;;;;;;;11.13;5.45;;;;;;;;;;5016128;28;20028;-80
2021/03/31 00:51:37;;;;;;;11.30;5.20;;;;;;;;;;5021027;28;20032;-80
2021/03/31 00:54:22;;;;;;;12.88;5.10;;;;;;;;;;5020047;28;20120;-81
2021/03/31 00:57:07;;;;;;;9.95;4.55;;;;;;;;;;5019846;28;20483;-82
2021/03/31 00:59:53;;;;;;;12.88;5.32;;;;;;;;;;5013295;28;21023;-83
2021/03/31 01:02:38;;;;;;;9.90;4.82;;;;;;;;;;5018565;28;20037;-82
2021/03/31 01:05:25;;;;;;;11.35;5.18;;;;;;;;;;5018119;28;20083;-81
2021/03/31 01:08:10;;;;;;;14.85;5.63;;;;;;;;;;5018347;28;20446;-80
2021/03/31 01:10:56;;;;;;;10.85;5.30;;;;;;;;;;5001882;28;20021;-83
2021/03/31 01:13:42;;;;;;;10.50;6.07;;;;;;;;;;5011665;28;20072;-80
2021/03/31 01:16:33;;;;;;;8.05;4.65;;;;;;;;;;5021105;28;20480;-81
2021/03/31 01:19:36;;;;;;;11.18;4.75;;;;;;;;;;5019128;28;20029;-82
2021/03/31 01:22:40;;;;;;;13.55;5.32;;;;;;;;;;5017824;28;20022;-82
2021/03/31 01:25:31;;;;;;;10.80;5.47;;;;;;;;;;5018906;28;20105;-82
2021/03/31 01:28:19;;;;;;;11.68;5.10;;;;;;;;;;5013340;28;20466;-81
2021/03/31 01:31:28;;;;;;;10.13;5.45;;;;;;;;;;5015345;28;20194;-82
2021/03/31 01:34:23;;;;;;;11.20;4.93;;;;;;;;;;5029847;28;20033;-82
2021/03/31 01:37:10;;;;;;;14.40;5.03;;;;;;;;;;5021983;28;20436;-83
2021/03/31 01:39:56;;;;;;;11.20;5.70;;;;;;;;;;5019694;28;20041;-81
2021/03/31 01:42:45;;;;;;;9.85;4.70;;;;;;;;;;5018840;28;20412;-81
2021/03/31 01:45:31;;;;;;;10.80;5.37;;;;;;;;;;5010437;28;20034;-80
2021/03/31 01:48:18;;;;;;;10.80;5.78;;;;;;;;;;5016337;28;20017;-81
2021/03/31 01:51:05;;;;;;;12.02;5.68;;;;;;;;;;5015833;28;20495;-81
2021/03/31 01:53:50;;;;;;;10.63;5.25;;;;;;;;;;5021499;28;20034;-81
2021/03/31 01:56:36;;;;;;;9.68;5.07;;;;;;;;;;5017764;28;20030;-82
2021/03/31 01:59:22;;;;;;;13.82;6.05;;;;;;;;;;5015949;28;20018;-81
2021/03/31 02:02:09;;;;;;;10.43;5.68;;;;;;;;;;5010155;28;20029;-79
2021/03/31 02:04:55;;;;;;;12.68;6.10;;;;;;;;;;5017039;28;20061;-80
2021/03/31 02:07:40;;;;;;;14.65;6.20;;;;;;;;;;5017047;28;20031;-81
2021/03/31 02:10:26;;;;;;;15.05;5.95;;;;;;;;;;5019888;28;20029;-81
2021/03/31 02:13:12;;;;;;;15.32;6.57;;;;;;;;;;5022289;28;20448;-80
2021/03/31 02:15:59;;;;;;;10.50;5.85;;;;;;;;;;5015159;28;20041;-81
2021/03/31 02:18:45;;;;;;;14.27;5.97;;;;;;;;;;5017451;28;20018;-80
2021/03/31 02:21:32;;;;;;;9.88;6.18;;;;;;;;;;5018096;28;20449;-82
2021/03/31 02:24:18;;;;;;;13.23;6.82;;;;;;;;;;5021263;28;20033;-81
2021/03/31 02:27:05;;;;;;;12.13;5.72;;;;;;;;;;5018238;28;20052;-82
2021/03/31 02:29:50;;;;;;;10.70;5.82;;;;;;;;;;5015885;28;20029;-82
2021/03/31 02:32:36;;;;;;;12.25;5.80;;;;;;;;;;5016232;28;20037;-82
2021/03/31 02:35:22;;;;;;;10.68;6.25;;;;;;;;;;5017475;28;20033;-84
2021/03/31 02:38:10;;;;;;;12.57;6.50;;;;;;;;;;5016261;28;20745;-82
2021/03/31 02:40:56;;;;;;;14.68;7.03;;;;;;;;;;5022709;28;20024;-82
2021/03/31 02:43:42;;;;;;;11.80;6.25;;;;;;;;;;5021005;28;20025;-80
2021/03/31 02:46:28;;;;;;;12.40;5.65;;;;;;;;;;5024171;28;20013;-82
2021/03/31 02:49:13;;;;;;;12.30;5.95;;;;;;;;;;5017190;28;20025;-82
2021/03/31 02:51:59;;;;;;;11.38;6.10;;;;;;;;;;5017255;28;20112;-81
2021/03/31 02:54:45;;;;;;;9.93;5.95;;;;;;;;;;5018325;28;20658;-81
2021/03/31 02:57:30;;;;;;;11.48;6.05;;;;;;;;;;5015346;28;20052;-81
2021/03/31 03:00:16;;;;;;;11.85;5.88;;;;;;;;;;5023680;28;20063;-80
2021/03/31 03:03:02;;;;;;;9.90;5.65;;;;;;;;;;5020618;28;20041;-81
2021/03/31 03:05:48;;;;;;;10.52;6.38;;;;;;;;;;5019338;28;20773;-82
2021/03/31 03:08:34;;;;;;;13.77;5.95;;;;;;;;;;5015073;28;20122;-81
2021/03/31 03:11:19;;;;;;;10.38;6.65;;;;;;;;;;5022450;28;20476;-81
2021/03/31 03:14:05;;;;;;;10.82;6.38;;;;;;;;;;5020856;28;20049;-80
2021/03/31 03:16:51;;;;;;;12.85;5.70;;;;;;;;;;5031165;28;20056;-80
2021/03/31 03:19:36;;;;;;;10.15;6.15;;;;;;;;;;5017042;28;20017;-81
2021/03/31 03:22:22;;;;;;;13.98;6.03;;;;;;;;;;5016273;28;20029;-81
2021/03/31 03:25:08;;;;;;;11.00;6.22;;;;;;;;;;5017943;28;20032;-82
2021/03/31 03:27:54;;;;;;;16.75;8.05;;;;;;;;;;5021528;28;20649;-81
2021/03/31 03:30:39;;;;;;;11.90;6.45;;;;;;;;;;5021043;28;20040;-81
2021/03/31 03:33:25;;;;;;;10.32;6.38;;;;;;;;;;5025327;28;20101;-81
2021/03/31 03:36:11;;;;;;;14.50;5.93;;;;;;;;;;5019171;28;20033;-81
2021/03/31 03:38:57;;;;;;;10.18;5.82;;;;;;;;;;5022404;28;20029;-80
2021/03/31 03:41:42;;;;;;;12.40;6.45;;;;;;;;;;5023639;28;20431;-81
2021/03/31 03:44:27;;;;;;;16.05;6.72;;;;;;;;;;5019949;28;20029;-82
2021/03/31 03:47:13;;;;;;;12.20;6.80;;;;;;;;;;5017155;28;20053;-80
2021/03/31 03:49:59;;;;;;;13.43;6.70;;;;;;;;;;5000208;28;20079;-81
2021/03/31 03:52:47;;;;;;;11.88;6.75;;;;;;;;;;5014721;28;20361;-80
2021/03/31 03:55:34;;;;;;;16.38;7.53;;;;;;;;;;5016263;28;20052;-80
2021/03/31 03:58:20;;;;;;;12.52;6.65;;;;;;;;;;5022964;28;20071;-81
2021/03/31 04:01:05;;;;;;;13.52;6.57;;;;;;;;;;5017284;28;20083;-81
2021/03/31 04:03:52;;;;;;;16.67;7.68;;;;;;;;;;5020112;28;20423;-81
2021/03/31 04:06:38;;;;;;;12.90;7.53;;;;;;;;;;5013824;28;20518;-81
2021/03/31 04:09:23;;;;;;;13.55;6.68;;;;;;;;;;5018584;28;20026;-81
2021/03/31 04:12:09;;;;;;;13.18;7.57;;;;;;;;;;5021915;28;20033;-81
2021/03/31 04:14:54;;;;;;;16.38;6.85;;;;;;;;;;5017035;28;20049;-82
2021/03/31 04:17:40;;;;;;;15.55;8.32;;;;;;;;;;5016400;28;20026;-80
2021/03/31 04:20:26;;;;;;;12.18;6.80;;;;;;;;;;5017272;28;20025;-81
2021/03/31 04:23:12;;;;;;;11.57;7.30;;;;;;;;;;5021686;28;20045;-80
2021/03/31 04:25:57;;;;;;;21.58;9.50;;;;;;;;;;5017473;28;20030;-80
2021/03/31 04:28:42;;;;;;;13.13;6.82;;;;;;;;;;5018324;28;20048;-80
2021/03/31 04:31:28;;;;;;;13.63;7.47;;;;;;;;;;5012939;28;20462;-80
2021/03/31 04:34:14;;;;;;;14.23;6.82;;;;;;;;;;5018606;28;20447;-82
2021/03/31 04:37:00;;;;;;;13.02;6.38;;;;;;;;;;5019345;28;20713;-82
2021/03/31 04:39:45;;;;;;;15.30;7.45;;;;;;;;;;5022447;28;20029;-80
2021/03/31 04:42:30;;;;;;;13.80;7.15;;;;;;;;;;5020181;28;20017;-81
2021/03/31 04:45:16;;;;;;;15.02;6.90;;;;;;;;;;5026857;28;20373;-81
2021/03/31 04:48:01;;;;;;;15.60;7.00;;;;;;;;;;5023438;28;20040;-80
2021/03/31 04:50:46;;;;;;;16.30;7.30;;;;;;;;;;5022270;28;20160;-81
2021/03/31 04:53:32;;;;;;;13.32;6.88;;;;;;;;;;5017635;28;20037;-80
2021/03/31 04:56:17;;;;;;;17.08;7.78;;;;;;;;;;5035273;28;20170;-80
2021/03/31 04:59:02;;;;;;;15.60;7.65;;;;;;;;;;5021921;28;20021;-81
2021/03/31 05:01:47;;;;;;;13.57;7.30;;;;;;;;;;5026220;28;20032;-81
2021/03/31 05:04:33;;;;;;;14.65;7.38;;;;;;;;;;5025024;28;20021;-81
2021/03/31 05:07:18;;;;;;;13.13;7.35;;;;;;;;;;5022170;28;20041;-84
2021/03/31 05:10:03;;;;;;;14.02;7.20;;;;;;;;;;5022199;28;20029;-81
2021/03/31 05:12:49;;;;;;;17.08;8.43;;;;;;;;;;5021477;28;20383;-81
2021/03/31 05:15:34;;;;;;;21.00;7.70;;;;;;;;;;5021608;28;20058;-81
2021/03/31 05:18:20;;;;;;;16.15;7.28;;;;;;;;;;5022459;28;20022;-80
2021/03/31 05:21:05;;;;;;;14.75;7.45;;;;;;;;;;5023770;28;20486;-82
2021/03/31 05:23:50;;;;;;;13.82;7.22;;;;;;;;;;5020710;28;20549;-81
2021/03/31 05:26:35;;;;;;;15.02;7.28;;;;;;;;;;5026287;28;20079;-81
2021/03/31 05:29:20;;;;;;;14.48;7.63;;;;;;;;;;5022062;28;20138;-82
2021/03/31 05:32:06;;;;;;;19.02;7.80;;;;;;;;;;5018794;28;20067;-82
2021/03/31 05:34:52;;;;;;;14.13;7.22;;;;;;;;;;5023654;28;20086;-81
2021/03/31 05:37:37;;;;;;;14.55;7.63;;;;;;;;;;5025850;28;20051;-82
2021/03/31 05:40:22;;;;;;;15.88;7.20;;;;;;;;;;5021271;28;20650;-82
2021/03/31 05:43:08;;;;;;;14.32;8.38;;;;;;;;;;5028726;28;20480;-82
2021/03/31 05:45:55;;;;;;;14.45;7.78;;;;;;;;;;5020928;28;20053;-85
2021/03/31 05:48:40;;;;;;;15.25;7.82;;;;;;;;;;5025341;28;20030;-82
2021/03/31 05:51:25;;;;;;;16.80;8.38;;;;;;;;;;5022488;28;20021;-80
2021/03/31 05:54:11;;;;;;;16.17;8.25;;;;;;;;;;5021256;28;20067;-81
2021/03/31 05:56:57;;;;;;;14.23;6.97;;;;;;;;;;5023655;28;20126;-79
2021/03/31 05:59:42;;;;;;;16.65;8.65;;;;;;;;;;5017067;28;20468;-81
2021/03/31 06:02:28;;;;;;;15.45;7.32;;;;;;;;;;5025040;28;20033;-79
2021/03/31 06:05:14;;;;;;;18.17;7.25;;;;;;;;;;5021032;28;20435;-79
2021/03/31 06:08:00;;;;;;;13.65;6.68;;;;;;;;;;5023701;28;20032;-79
2021/03/31 06:10:45;;;;;;;19.55;8.23;;;;;;;;;;5018383;28;20392;-79
2021/03/31 06:13:49;;;;;;;20.52;7.97;;;;;;;;;;5025761;28;20060;-79
2021/03/31 06:16:44;;;;;;;17.05;7.32;;;;;;;;;;5018035;28;20079;-80
2021/03/31 06:19:29;;;;;;;18.10;8.52;;;;;;;;;;5021910;28;20519;-81
2021/03/31 06:22:37;;;;;;;17.92;7.68;;;;;;;;;;5014458;28;20384;-81
2021/03/31 06:25:28;;;;;;;16.05;7.97;;;;;;;;;;5030307;28;20504;-81
2021/03/31 06:28:25;;;;;;;15.63;7.00;;;;;;;;;;5032383;28;20391;-82
2021/03/31 06:31:14;;;;;;;18.23;9.10;;;;;;;;;;5020544;28;20014;-81
2021/03/31 06:34:04;;;;;;;15.63;7.47;;;;;;;;;;5021411;28;20051;-81
2021/03/31 06:36:51;;;;;;;17.75;7.55;;;;;;;;;;5019853;28;20260;-81
2021/03/31 06:39:43;;;;;;;20.75;8.60;;;;;;;;;;5021693;28;20503;-81
2021/03/31 06:42:35;;;;;;;23.33;11.38;;;;;;;;;;5022845;28;20126;-82
2021/03/31 06:45:32;;;;;;;18.25;8.65;;;;;;;;;;5020054;28;20021;-81
2021/03/31 06:48:19;;;;;;;15.10;7.55;;;;;;;;;;5019251;28;20432;-81
2021/03/31 06:51:07;;;;;;;20.23;8.63;;;;;;;;;;5023261;28;20065;-81
2021/03/31 06:53:53;;;;;;;21.25;8.65;;;;;;;;;;5024785;28;20265;-80
2021/03/31 06:56:38;;;;;;;24.90;8.63;;;;;;;;;;5020452;28;20079;-80
2021/03/31 06:59:27;;;;;;;17.85;8.18;;;;;;;;;;5026115;28;20021;-79
2021/03/31 07:02:14;;;;;;;21.33;8.85;;;;;;;;;;5031884;28;20109;-79
2021/03/31 07:05:00;;;;;;;24.27;8.30;;;;;;;;;;5025049;28;20033;-80
2021/03/31 07:07:45;;;;;;;19.15;8.45;;;;;;;;;;5021857;28;20064;-80
2021/03/31 07:10:40;;;;;;;20.20;8.90;;;;;;;;;;5024183;28;20033;-79
2021/03/31 07:13:33;;;;;;;17.55;8.07;;;;;;;;;;5021186;28;20025;-79
2021/03/31 07:16:18;;;;;;;18.77;7.75;;;;;;;;;;5025050;28;20104;-79
2021/03/31 07:19:04;;;;;;;19.00;8.25;;;;;;;;;;5020115;28;20064;-81
2021/03/31 07:21:49;;;;;;;18.38;7.90;;;;;;;;;;5023753;28;20029;-82
2021/03/31 07:24:34;;;;;;;18.15;7.55;;;;;;;;;;5026571;28;20028;-81
2021/03/31 07:27:22;;;;;;;17.65;8.40;;;;;;;;;;5028694;28;20171;-81
2021/03/31 07:30:12;;;;;;;18.42;8.60;;;;;;;;;;5027137;28;20330;-80
2021/03/31 07:32:57;;;;;;;;;;;;;;;;;;5025052;28;20029;-80
2021/03/31 07:35:43;;;;;;;21.75;13.77;;;;;;;;;;5026558;28;20008;-80
2021/03/31 07:38:28;;;;;;;20.33;8.43;;;;;;;;;;5021399;28;20022;-81
2021/03/31 07:41:14;;;;;;;22.33;8.73;;;;;;;;;;5027121;28;20033;-81
2021/03/31 07:43:59;;;;;;;17.92;8.18;;;;;;;;;;5021397;28;20108;-81
2021/03/31 07:46:45;;;;;;;29.08;9.63;;;;;;;;;;5026407;28;20238;-81
2021/03/31 07:49:53;;;;;;;18.38;9.15;;;;;;;;;;5026663;28;20025;-80
2021/03/31 07:52:56;;;;;;;16.98;8.30;;;;;;;;;;5014708;28;20033;-80
2021/03/31 07:55:41;;;;;;;24.60;7.45;;;;;;;;;;5016281;28;20032;-81
2021/03/31 07:58:28;;;;;;;19.40;8.02;;;;;;;;;;5019082;28;20049;-81
2021/03/31 08:01:13;;;;;;;15.95;7.75;;;;;;;;;;5023571;28;20021;-80
2021/03/31 08:04:00;;;;;;;20.75;8.80;;;;;;;;;;5023300;28;20117;-81
2021/03/31 08:06:46;;;;;;;18.00;8.15;;;;;;;;;;5026277;28;20048;-79
2021/03/31 08:09:32;;;;;;;20.13;8.32;;;;;;;;;;5025844;28;20025;-79
2021/03/31 08:12:30;;;;;;;15.48;8.45;;;;;;;;;;5027456;28;20380;-80
2021/03/31 08:15:35;;;;;;;18.17;7.95;;;;;;;;;;5021184;28;20053;-79
2021/03/31 08:18:21;;;;;;;15.57;7.65;;;;;;;;;;5028502;28;20041;-80
2021/03/31 08:21:18;;;;;;;20.58;9.27;;;;;;;;;;5022468;28;20495;-80
2021/03/31 08:24:05;;;;;;;20.15;11.13;;;;;;;;;;5026119;28;20029;-80
2021/03/31 08:26:57;;;;;;;21.13;10.88;;;;;;;;;;5023179;28;20029;-81
2021/03/31 08:29:42;;;;;;;17.85;11.02;;;;;;;;;;5025360;28;20022;-81
2021/03/31 08:32:28;;;;;;;28.55;11.38;;;;;;;;;;5021848;28;20632;-82
2021/03/31 08:35:15;;;;;;;41.97;27.75;;;;;;;;;;5023120;28;20017;-81
2021/03/31 08:38:00;;;;;;;21.20;10.40;;;;;;;;;;5025849;28;20030;-80
2021/03/31 08:40:45;;;;;;;24.05;10.68;;;;;;;;;;5020960;28;20030;-82
2021/03/31 08:43:30;;;;;;;20.05;10.95;;;;;;;;;;5025934;28;20471;-81
2021/03/31 08:46:36;;;;;;;26.20;12.00;;;;;;;;;;5021899;28;20411;-81
2021/03/31 08:49:25;;;;;;;18.40;10.88;;;;;;;;;;5023381;28;20021;-82
2021/03/31 08:52:12;;;;;;;21.08;11.60;;;;;;;;;;5022968;28;20120;-82
2021/03/31 08:54:57;;;;;;;19.83;10.63;;;;;;;;;;5024674;28;20329;-82
2021/03/31 08:57:47;;;;;;;18.25;11.68;;;;;;;;;;5017698;28;20514;-82
2021/03/31 09:00:40;;;;;;;20.35;12.00;;;;;;;;;;5021113;28;20029;-82
2021/03/31 09:03:28;;;;;;;21.10;10.85;;;;;;;;;;5022712;28;20406;-80
2021/03/31 09:06:16;;;;;;;29.83;16.30;;;;;;;;;;5008897;28;20032;-82
2021/03/31 09:09:01;;;;;;;;;;;;;;;;;;5025528;28;20017;-81
2021/03/31 09:11:47;;;;;;;25.35;11.27;;;;;;;;;;5023429;28;19913;-82
2021/03/31 09:14:32;;;;;;;26.00;11.20;;;;;;;;;;5028853;28;20135;-82
2021/03/31 09:17:25;;;;;;;28.13;10.93;;;;;;;;;;5029393;28;20026;-83
2021/03/31 09:20:12;;;;;;;19.45;10.63;;;;;;;;;;5024960;28;20017;-82
2021/03/31 09:22:57;;;;;;;15.95;9.73;;;;;;;;;;5021914;28;20025;-82
2021/03/31 09:25:42;;;;;;;22.55;11.05;;;;;;;;;;5022777;28;20043;-80
2021/03/31 09:28:28;;;;;;;25.17;11.80;;;;;;;;;;5014068;28;20063;-80
2021/03/31 09:31:22;;;;;;;30.70;19.85;;;;;;;;;;5023246;28;20041;-79
2021/03/31 09:34:08;;;;;;;21.35;10.05;;;;;;;;;;5008459;28;20040;-80
2021/03/31 09:37:00;;;;;;;15.50;9.85;;;;;;;;;;5024343;28;20030;-80
2021/03/31 09:39:45;;;;;;;21.92;10.77;;;;;;;;;;5021886;28;20449;-80
2021/03/31 09:42:32;;;;;;;18.70;10.15;;;;;;;;;;5021134;28;20365;-81
2021/03/31 09:45:17;;;;;;;16.85;9.20;;;;;;;;;;5024261;28;20030;-81
2021/03/31 09:48:03;;;;;;;13.80;9.32;;;;;;;;;;5022342;28;20493;-81
2021/03/31 09:50:49;;;;;;;18.10;9.52;;;;;;;;;;5018404;28;20040;-81
2021/03/31 09:53:34;;;;;;;29.00;10.30;;;;;;;;;;5018760;28;22315;-82
2021/03/31 09:56:19;;;;;;;24.98;10.55;;;;;;;;;;5020024;28;20086;-81
2021/03/31 09:59:04;;;;;;;16.00;9.95;;;;;;;;;;5022922;28;20037;-82
2021/03/31 10:01:50;;;;;;;18.63;10.07;;;;;;;;;;5024840;28;20033;-82
2021/03/31 10:04:38;;;;;;;19.30;10.50;;;;;;;;;;5021922;28;20021;-81
2021/03/31 10:07:23;;;;;;;15.55;10.05;;;;;;;;;;5022354;28;20026;-83
2021/03/31 10:10:09;;;;;;;19.27;10.40;;;;;;;;;;5019572;28;20033;-81
2021/03/31 10:13:02;;;;;;;20.52;10.40;;;;;;;;;;5027164;28;20427;-82
2021/03/31 10:16:05;;;;;;;19.45;10.00;;;;;;;;;;5019313;28;20116;-81
2021/03/31 10:18:51;;;;;;;19.70;10.65;;;;;;;;;;5019196;28;20086;-81
2021/03/31 10:21:37;;;;;;;16.60;11.20;;;;;;;;;;5022552;28;20057;-82
2021/03/31 10:24:33;;;;;;;21.27;10.25;;;;;;;;;;5011586;28;20048;-87
2021/03/31 10:27:19;;;;;;;12.68;9.90;;;;;;;;;;5025687;28;20024;-87
2021/03/31 10:30:05;;;;;;;21.63;11.30;;;;;;;;;;5022943;28;20072;-84
2021/03/31 10:32:51;;;;;;;16.45;10.40;;;;;;;;;;5024797;28;20037;-85
2021/03/31 10:38:44;;;;;;;14.25;10.23;;;;;;;;;;5025640;28;20049;-84
2021/03/31 10:46:43;;;;;;;33.90;30.30;;;;;;;;;;5022933;28;20065;-84
2021/03/31 10:50:58;;;;;;;17.27;10.10;;;;;;;;;;5020806;28;20112;-87
2021/03/31 10:53:54;;;;;;;25.13;9.43;;;;;;;;;;5027573;28;20021;-84
2021/03/31 10:56:48;;;;;;;18.77;11.23;;;;;;;;;;5016449;28;20033;-84
2021/03/31 10:59:33;;;;;;;19.38;12.13;;;;;;;;;;5027359;28;20065;-84
2021/03/31 11:02:19;;;;;;;19.30;10.02;;;;;;;;;;5023515;28;20029;-82
2021/03/31 11:05:04;;;;;;;13.95;9.02;;;;;;;;;;5024140;28;20652;-85
2021/03/31 11:07:49;;;;;;;13.90;8.93;;;;;;;;;;5025623;28;20513;-84
2021/03/31 11:10:34;;;;;;;11.82;7.80;;;;;;;;;;5039389;28;20077;-85
2021/03/31 11:13:27;;;;;;;17.17;10.77;;;;;;;;;;5024583;28;20568;-82
2021/03/31 11:16:13;;;;;;;17.48;9.70;;;;;;;;;;5024521;28;20034;-85
2021/03/31 11:27:54;;;;;;;15.38;8.65;;;;;;;;;;5024576;28;20033;-83
2021/03/31 11:30:40;;;;;;;13.73;7.57;;;;;;;;;;5025829;28;20091;-83
2021/03/31 11:33:25;;;;;;;13.88;9.60;;;;;;;;;;5026848;28;20029;-81
2021/03/31 11:36:11;;;;;;;19.17;10.18;;;;;;;;;;5027572;28;20029;-82
2021/03/31 11:38:56;;;;;;;13.85;9.98;;;;;;;;;;5025936;28;20033;-84
2021/03/31 11:41:41;;;;;;;12.13;7.68;;;;;;;;;;5025402;28;20061;-82
2021/03/31 11:44:26;;;;;;;13.27;9.18;;;;;;;;;;5024233;28;20497;-81
2021/03/31 11:47:12;;;;;;;16.13;9.52;;;;;;;;;;5021436;28;20579;-87
2021/03/31 11:49:57;;;;;;;17.98;9.82;;;;;;;;;;5024577;28;20158;-81
2021/03/31 11:52:42;;;;;;;19.30;11.05;;;;;;;;;;5021654;28;20021;-85
2021/03/31 11:55:28;;;;;;;12.98;9.70;;;;;;;;;;5026324;28;20037;-89
2021/03/31 11:58:13;;;;;;;19.77;12.75;;;;;;;;;;5039030;28;20679;-87
2021/03/31 12:00:59;;;;;;;16.15;7.15;;;;;;;;;;5029653;28;20471;-88
2021/03/31 12:03:44;;;;;;;12.10;6.80;;;;;;;;;;5012818;28;20034;-88
2021/03/31 12:06:47;;;;;;;20.13;8.20;;;;;;;;;;5030398;28;20045;-90
2021/03/31 12:10:07;;;;;;;;;;;;;;;;;;;;;
2021/03/31 12:12:53;;;;;;;16.25;8.95;;;;;;;;;;5027516;28;20052;-84
2021/03/31 12:15:38;;;;;;;17.73;10.73;;;;;;;;;;5009911;28;20065;-88
2021/03/31 12:18:24;;;;;;;10.23;6.32;;;;;;;;;;5031905;28;20272;-90
2021/03/31 12:21:09;;;;;;;13.93;7.03;;;;;;;;;;5025107;28;20037;-89
2021/03/31 12:23:54;;;;;;;13.25;9.50;;;;;;;;;;5027427;28;20025;-88
2021/03/31 12:26:40;;;;;;;13.80;8.20;;;;;;;;;;5046669;28;20021;-90
2021/03/31 12:29:26;;;;;;;17.17;10.13;;;;;;;;;;5041217;28;20049;-89
2021/03/31 12:32:15;;;;;;;16.65;10.60;;;;;;;;;;5044842;28;20089;-90
2021/03/31 12:35:31;;;;;;;15.65;10.50;;;;;;;;;;5034932;28;20029;-89
2021/03/31 12:38:20;;;;;;;15.32;8.15;;;;;;;;;;5002812;28;20639;-84
2021/03/31 12:41:05;;;;;;;18.20;9.30;;;;;;;;;;5035453;28;20021;-85
2021/03/31 12:43:50;;;;;;;19.35;9.75;;;;;;;;;;5025873;28;20029;-85
2021/03/31 12:46:36;;;;;;;13.52;8.88;;;;;;;;;;5022029;28;20045;-85
2021/03/31 12:49:22;;;;;;;15.82;10.85;;;;;;;;;;5026032;28;20022;-88
2021/03/31 12:52:15;;;;;;;12.75;8.68;;;;;;;;;;5024409;28;20021;-85
2021/03/31 12:57:47;;;;;;;19.92;11.82;;;;;;;;;;5027292;28;20083;-86
2021/03/31 13:00:32;;;;;;;20.52;11.52;;;;;;;;;;5025622;28;20119;-88
2021/03/31 13:03:18;;;;;;;18.20;9.60;;;;;;;;;;5025727;28;20108;-88
2021/03/31 13:06:03;;;;;;;24.70;14.07;;;;;;;;;;5023818;28;20033;-88
2021/03/31 13:08:52;;;;;;;16.35;12.13;;;;;;;;;;5028339;28;20025;-87
2021/03/31 13:11:40;;;;;;;15.90;11.27;;;;;;;;;;5009848;28;20025;-88
2021/03/31 13:14:47;;;;;;;13.60;8.00;;;;;;;;;;5038188;28;20050;-89
2021/03/31 13:24:04;;;;;;;15.43;7.85;;;;;;;;;;5035458;28;20517;-86
2021/03/31 13:32:33;;;;;;;17.95;10.05;;;;;;;;;;5020681;28;20107;-87
2021/03/31 13:41:01;;;;;;;12.35;8.50;;;;;;;;;;5022042;28;20029;-84
2021/03/31 13:43:46;;;;;;;16.17;9.98;;;;;;;;;;5023052;28;20037;-84
2021/03/31 13:46:31;;;;;;;18.08;11.52;;;;;;;;;;5023826;28;20087;-85
2021/03/31 13:49:27;;;;;;;14.30;9.80;;;;;;;;;;5017528;28;20049;-84
2021/03/31 13:52:22;;;;;;;16.67;11.65;;;;;;;;;;5021868;28;20025;-85
2021/03/31 13:55:11;;;;;;;20.10;10.98;;;;;;;;;;5022074;28;20018;-87
2021/03/31 13:57:57;;;;;;;14.20;9.73;;;;;;;;;;5021392;28;20018;-86
2021/03/31 14:00:45;;;;;;;14.93;10.00;;;;;;;;;;5022804;28;20116;-84
2021/03/31 14:03:31;;;;;;;21.70;10.20;;;;;;;;;;5018972;28;20025;-81
2021/03/31 14:06:16;;;;;;;14.75;8.68;;;;;;;;;;5023265;28;20026;-84
2021/03/31 14:09:01;;;;;;;14.40;8.82;;;;;;;;;;5020864;28;20029;-82
2021/03/31 14:11:49;;;;;;;16.40;10.63;;;;;;;;;;5018477;28;20120;-86
2021/03/31 14:14:35;;;;;;;15.52;9.52;;;;;;;;;;5013389;28;20052;-80
2021/03/31 14:17:22;;;;;;;16.77;11.32;;;;;;;;;;5025593;28;20438;-83
2021/03/31 14:20:10;;;;;;;20.83;12.50;;;;;;;;;;5023925;28;20029;-83
2021/03/31 14:22:55;;;;;;;20.85;11.32;;;;;;;;;;5023713;28;20026;-86
2021/03/31 14:25:40;;;;;;;14.30;10.38;;;;;;;;;;5022482;28;20025;-86
2021/03/31 14:28:26;;;;;;;18.67;11.02;;;;;;;;;;5024038;28;20025;-84
2021/03/31 14:31:11;;;;;;;17.38;10.70;;;;;;;;;;5008449;28;20025;-85
2021/03/31 14:33:56;;;;;;;17.60;10.05;;;;;;;;;;5028601;28;20108;-87
2021/03/31 14:36:42;;;;;;;19.00;10.50;;;;;;;;;;5022749;28;20033;-84
2021/03/31 14:39:27;;;;;;;24.58;17.40;;;;;;;;;;5022683;28;20092;-85
2021/03/31 14:42:12;;;;;;;17.10;10.48;;;;;;;;;;5023116;28;20117;-86
2021/03/31 14:44:58;;;;;;;16.20;8.98;;;;;;;;;;5027563;28;20022;-87
2021/03/31 14:47:43;;;;;;;14.95;7.95;;;;;;;;;;5039626;28;20408;-87
2021/03/31 14:50:30;;;;;;;10.65;7.03;;;;;;;;;;5023650;28;20104;-85
2021/03/31 14:59:35;;;;;;;14.68;7.13;;;;;;;;;;5043750;28;20010;-85
2021/03/31 15:02:21;;;;;;;14.70;9.57;;;;;;;;;;5029777;28;20029;-87
2021/03/31 15:05:07;;;;;;;16.38;8.60;;;;;;;;;;5016343;28;20140;-88
2021/03/31 15:07:52;;;;;;;13.02;8.13;;;;;;;;;;5035802;28;20031;-86
2021/03/31 15:10:37;;;;;;;18.92;9.15;;;;;;;;;;5027881;28;20030;-87
2021/03/31 15:13:22;;;;;;;20.08;8.38;;;;;;;;;;5029679;28;20021;-85
2021/03/31 15:16:08;;;;;;;18.77;9.43;;;;;;;;;;5024014;28;20095;-84
2021/03/31 15:18:54;;;;;;;19.02;8.48;;;;;;;;;;5027680;28;20435;-84
2021/03/31 15:22:40;;;;;;;14.48;8.60;;;;;;;;;;5027261;28;20447;-85
2021/03/31 15:24:44;;;;;;;15.57;8.23;;;;;;;;;;5026423;28;20468;-84
2021/03/31 15:27:30;;;;;;;27.17;17.85;;;;;;;;;;5017517;28;20038;-85
2021/03/31 15:30:15;;;;;;;14.98;9.00;;;;;;;;;;5023676;28;20358;-87
2021/03/31 15:33:01;;;;;;;14.20;6.68;;;;;;;;;;5012234;28;20611;-84
2021/03/31 15:35:49;;;;;;;13.70;8.38;;;;;;;;;;5025756;28;20036;-83
2021/03/31 15:38:34;;;;;;;13.07;7.25;;;;;;;;;;5024219;28;20756;-85
2021/03/31 15:41:22;;;;;;;15.93;7.07;;;;;;;;;;5025974;28;20416;-84
2021/03/31 15:44:10;;;;;;;12.32;7.00;;;;;;;;;;5025075;28;20049;-84
2021/03/31 15:47:11;;;;;;;18.10;6.57;;;;;;;;;;5022884;28;20379;-85
2021/03/31 15:49:58;;;;;;;15.63;6.38;;;;;;;;;;5037788;28;20248;-85
2021/03/31 15:52:43;;;;;;;12.23;6.07;;;;;;;;;;5015616;28;20033;-84
2021/03/31 15:55:33;;;;;;;11.45;5.78;;;;;;;;;;5037754;28;20030;-85
2021/03/31 15:58:18;;;;;;;15.85;6.25;;;;;;;;;;5024480;28;20030;-84
2021/03/31 16:01:06;;;;;;;16.48;6.70;;;;;;;;;;5024310;28;20049;-84
2021/03/31 16:04:03;;;;;;;14.15;7.35;;;;;;;;;;5023683;28;20021;-85
2021/03/31 16:09:52;;;;;;;14.75;6.57;;;;;;;;;;5023717;28;20112;-83
2021/03/31 16:12:38;;;;;;;10.57;6.40;;;;;;;;;;5024245;28;20423;-85
2021/03/31 16:15:32;;;;;;;12.13;5.38;;;;;;;;;;5026772;28;20049;-85
2021/03/31 16:18:29;;;;;;;8.48;4.72;;;;;;;;;;5020525;28;20049;-86
2021/03/31 16:21:14;;;;;;;10.20;4.05;;;;;;;;;;5009881;28;20018;-84
2021/03/31 16:24:00;;;;;;;10.27;3.90;;;;;;;;;;5024047;28;20029;-84
2021/03/31 16:26:48;;;;;;;15.07;4.60;;;;;;;;;;5023072;28;20025;-89
2021/03/31 16:32:37;;;;;;;9.07;3.50;;;;;;;;;;5022477;28;20025;-84
2021/03/31 16:35:25;;;;;;;7.25;3.80;;;;;;;;;;5020914;28;20888;-85
2021/03/31 16:38:11;;;;;;;10.05;4.35;;;;;;;;;;5025215;28;20025;-85
2021/03/31 16:40:56;;;;;;;13.65;4.00;;;;;;;;;;5021561;28;20154;-89
2021/03/31 16:43:41;;;;;;;10.93;4.10;;;;;;;;;;5027676;28;20083;-85
2021/03/31 16:46:26;;;;;;;12.70;4.65;;;;;;;;;;5021004;28;20029;-87
2021/03/31 16:49:12;;;;;;;8.20;4.05;;;;;;;;;;5026801;28;20484;-88
2021/03/31 16:51:57;;;;;;;10.20;5.10;;;;;;;;;;5025452;28;20109;-87
2021/03/31 16:54:42;;;;;;;11.05;4.32;;;;;;;;;;5016548;28;20450;-88
2021/03/31 16:57:28;;;;;;;11.13;4.43;;;;;;;;;;5025681;28;20032;-88
2021/03/31 17:00:13;;;;;;;11.93;4.65;;;;;;;;;;5023390;28;20069;-87
2021/03/31 17:02:59;;;;;;;12.38;4.95;;;;;;;;;;5032410;28;20031;-89
2021/03/31 17:05:45;;;;;;;12.68;5.32;;;;;;;;;;5027406;28;20373;-86
2021/03/31 17:08:30;;;;;;;11.88;5.38;;;;;;;;;;5023253;28;20025;-87
2021/03/31 17:11:18;;;;;;;13.07;4.72;;;;;;;;;;5021628;28;20021;-86
2021/03/31 17:14:04;;;;;;;14.73;4.50;;;;;;;;;;5024968;28;20042;-86
2021/03/31 17:16:49;;;;;;;12.52;5.47;;;;;;;;;;5026127;28;20045;-86
2021/03/31 17:19:35;;;;;;;15.85;5.53;;;;;;;;;;5043596;28;20081;-88